sensor_id;sensor_type;location;lat;lon;timestamp;temperature;humidity
32293;DHT22;43233;48.608;8.838;2022-07-29T00:01:48;19.00;99.90
32293;DHT22;43233;48.608;8.838;2022-07-29T00:04:14;19.10;99.90
32293;DHT22;43233;48.608;8.838;2022-07-29T00:06:40;19.10;99.90
32293;DHT22;43233;48.608;8.838;2022-07-29T00:09:06;19.20;99.90
32293;DHT22;43233;48.608;8.838;2022-07-29T00:11:32;19.30;99.90
32293;DHT22;43233;48.608;8.838;2022-07-29T00:13:57;19.30;99.90
32293;DHT22;43233;48.608;8.838;2022-07-29T00:16:23;19.30;99.90
32293;DHT22;43233;48.608;8.838;2022-07-29T00:18:49;19.30;99.90
32293;DHT22;43233;48.608;8.838;2022-07-29T00:21:14;19.20;99.90
32293;DHT22;43233;48.608;8.838;2022-07-29T00:23:40;19.20;99.90
32293;DHT22;43233;48.608;8.838;2022-07-29T00:26:06;19.20;99.90
32293;DHT22;43233;48.608;8.838;2022-07-29T00:28:31;19.10;99.90
32293;DHT22;43233;48.608;8.838;2022-07-29T00:30:57;19.20;99.90
32293;DHT22;43233;48.608;8.838;2022-07-29T00:33:22;19.20;99.90
32293;DHT22;43233;48.608;8.838;2022-07-29T00:35:48;19.20;99.90
32293;DHT22;43233;48.608;8.838;2022-07-29T00:38:16;19.20;99.90
32293;DHT22;43233;48.608;8.838;2022-07-29T00:40:42;19.20;99.90
32293;DHT22;43233;48.608;8.838;2022-07-29T00:43:08;19.20;99.90
32293;DHT22;43233;48.608;8.838;2022-07-29T00:45:35;19.30;99.90
32293;DHT22;43233;48.608;8.838;2022-07-29T00:48:01;19.30;99.90
32293;DHT22;43233;48.608;8.838;2022-07-29T00:50:27;19.30;99.90
32293;DHT22;43233;48.608;8.838;2022-07-29T00:52:52;19.30;99.90
32293;DHT22;43233;48.608;8.838;2022-07-29T00:55:18;19.20;99.90
32293;DHT22;43233;48.608;8.838;2022-07-29T00:57:44;19.10;99.90
32293;DHT22;43233;48.608;8.838;2022-07-29T01:00:13;19.00;99.90
32293;DHT22;43233;48.608;8.838;2022-07-29T01:02:39;19.00;99.90
32293;DHT22;43233;48.608;8.838;2022-07-29T01:05:05;19.00;99.90
32293;DHT22;43233;48.608;8.838;2022-07-29T01:07:35;18.90;99.90
32293;DHT22;43233;48.608;8.838;2022-07-29T01:10:03;18.90;99.90
32293;DHT22;43233;48.608;8.838;2022-07-29T01:12:30;18.80;99.90
32293;DHT22;43233;48.608;8.838;2022-07-29T01:15:00;18.80;99.90
32293;DHT22;43233;48.608;8.838;2022-07-29T01:22:42;18.70;99.90
32293;DHT22;43233;48.608;8.838;2022-07-29T01:30:38;18.50;99.90
32293;DHT22;43233;48.608;8.838;2022-07-29T01:33:11;18.50;99.90
32293;DHT22;43233;48.608;8.838;2022-07-29T01:35:59;18.50;99.90
32293;DHT22;43233;48.608;8.838;2022-07-29T01:38:27;18.40;99.90
32293;DHT22;43233;48.608;8.838;2022-07-29T01:41:03;18.40;99.90
32293;DHT22;43233;48.608;8.838;2022-07-29T01:43:42;18.40;99.90
32293;DHT22;43233;48.608;8.838;2022-07-29T01:46:14;18.40;99.90
32293;DHT22;43233;48.608;8.838;2022-07-29T01:48:48;18.50;99.90
32293;DHT22;43233;48.608;8.838;2022-07-29T01:51:29;18.40;99.90
32293;DHT22;43233;48.608;8.838;2022-07-29T01:54:22;18.40;99.90
32293;DHT22;43233;48.608;8.838;2022-07-29T01:56:51;18.40;99.90
32293;DHT22;43233;48.608;8.838;2022-07-29T01:59:19;18.40;99.90
32293;DHT22;43233;48.608;8.838;2022-07-29T02:01:47;18.30;99.90
32293;DHT22;43233;48.608;8.838;2022-07-29T02:04:15;18.40;99.90
32293;DHT22;43233;48.608;8.838;2022-07-29T02:06:42;18.40;99.90
32293;DHT22;43233;48.608;8.838;2022-07-29T02:09:10;18.40;99.90
32293;DHT22;43233;48.608;8.838;2022-07-29T02:11:38;18.40;99.90
32293;DHT22;43233;48.608;8.838;2022-07-29T02:14:05;18.30;99.90
32293;DHT22;43233;48.608;8.838;2022-07-29T02:16:33;18.40;99.90
32293;DHT22;43233;48.608;8.838;2022-07-29T02:19:02;18.30;99.90
32293;DHT22;43233;48.608;8.838;2022-07-29T02:21:29;18.30;99.90
32293;DHT22;43233;48.608;8.838;2022-07-29T02:23:59;18.20;99.90
32293;DHT22;43233;48.608;8.838;2022-07-29T02:26:26;18.20;99.90
32293;DHT22;43233;48.608;8.838;2022-07-29T02:28:55;18.30;99.90
32293;DHT22;43233;48.608;8.838;2022-07-29T02:31:24;18.30;99.90
32293;DHT22;43233;48.608;8.838;2022-07-29T02:33:51;18.40;99.90
32293;DHT22;43233;48.608;8.838;2022-07-29T02:36:21;18.30;99.90
32293;DHT22;43233;48.608;8.838;2022-07-29T02:38:47;18.30;99.90
32293;DHT22;43233;48.608;8.838;2022-07-29T02:41:50;18.30;99.90
32293;DHT22;43233;48.608;8.838;2022-07-29T02:44:22;18.40;99.90
32293;DHT22;43233;48.608;8.838;2022-07-29T02:47:02;18.40;99.90
32293;DHT22;43233;48.608;8.838;2022-07-29T02:49:41;18.40;99.90
32293;DHT22;43233;48.608;8.838;2022-07-29T02:52:08;18.20;99.90
32293;DHT22;43233;48.608;8.838;2022-07-29T02:54:38;18.10;99.90
32293;DHT22;43233;48.608;8.838;2022-07-29T02:57:11;18.00;99.90
32293;DHT22;43233;48.608;8.838;2022-07-29T02:59:41;18.00;99.90
32293;DHT22;43233;48.608;8.838;2022-07-29T03:02:09;18.10;99.90
32293;DHT22;43233;48.608;8.838;2022-07-29T03:04:36;18.10;99.90
32293;DHT22;43233;48.608;8.838;2022-07-29T03:07:05;18.00;99.90
32293;DHT22;43233;48.608;8.838;2022-07-29T03:09:31;18.00;99.90
32293;DHT22;43233;48.608;8.838;2022-07-29T03:11:58;18.10;99.90
32293;DHT22;43233;48.608;8.838;2022-07-29T03:14:24;18.10;99.90
32293;DHT22;43233;48.608;8.838;2022-07-29T03:16:51;18.10;99.90
32293;DHT22;43233;48.608;8.838;2022-07-29T03:19:17;18.10;99.90
32293;DHT22;43233;48.608;8.838;2022-07-29T03:21:43;18.10;99.90
32293;DHT22;43233;48.608;8.838;2022-07-29T03:24:32;18.10;99.90
32293;DHT22;43233;48.608;8.838;2022-07-29T03:26:58;18.10;99.90
32293;DHT22;43233;48.608;8.838;2022-07-29T03:29:24;18.10;99.90
32293;DHT22;43233;48.608;8.838;2022-07-29T03:31:50;18.10;99.90
32293;DHT22;43233;48.608;8.838;2022-07-29T03:34:16;18.10;99.90
32293;DHT22;43233;48.608;8.838;2022-07-29T03:36:42;18.10;99.90
32293;DHT22;43233;48.608;8.838;2022-07-29T03:39:09;18.10;99.90
32293;DHT22;43233;48.608;8.838;2022-07-29T03:41:36;18.10;99.90
32293;DHT22;43233;48.608;8.838;2022-07-29T03:44:06;18.00;99.90
32293;DHT22;43233;48.608;8.838;2022-07-29T03:46:34;18.00;99.90
32293;DHT22;43233;48.608;8.838;2022-07-29T03:49:03;17.90;99.90
32293;DHT22;43233;48.608;8.838;2022-07-29T03:51:29;17.90;99.90
32293;DHT22;43233;48.608;8.838;2022-07-29T03:53:54;17.90;99.90
32293;DHT22;43233;48.608;8.838;2022-07-29T03:56:23;17.80;99.90
32293;DHT22;43233;48.608;8.838;2022-07-29T03:58:51;17.90;99.90
32293;DHT22;43233;48.608;8.838;2022-07-29T04:01:17;17.80;99.90
32293;DHT22;43233;48.608;8.838;2022-07-29T04:03:44;17.90;99.90
32293;DHT22;43233;48.608;8.838;2022-07-29T04:06:12;17.90;99.90
32293;DHT22;43233;48.608;8.838;2022-07-29T04:08:37;17.90;99.90
32293;DHT22;43233;48.608;8.838;2022-07-29T04:11:04;17.90;99.90
32293;DHT22;43233;48.608;8.838;2022-07-29T04:13:31;17.90;99.90
32293;DHT22;43233;48.608;8.838;2022-07-29T04:15:57;18.00;99.90
32293;DHT22;43233;48.608;8.838;2022-07-29T04:18:24;17.90;99.90
32293;DHT22;43233;48.608;8.838;2022-07-29T04:20:49;17.90;99.90
32293;DHT22;43233;48.608;8.838;2022-07-29T04:23:15;17.90;99.90
32293;DHT22;43233;48.608;8.838;2022-07-29T04:25:42;17.90;99.90
32293;DHT22;43233;48.608;8.838;2022-07-29T04:28:08;17.90;99.90
32293;DHT22;43233;48.608;8.838;2022-07-29T04:30:35;17.90;99.90
32293;DHT22;43233;48.608;8.838;2022-07-29T04:33:02;17.80;99.90
32293;DHT22;43233;48.608;8.838;2022-07-29T04:35:29;17.80;99.90
32293;DHT22;43233;48.608;8.838;2022-07-29T04:37:55;17.90;99.90
32293;DHT22;43233;48.608;8.838;2022-07-29T04:40:21;17.90;99.90
32293;DHT22;43233;48.608;8.838;2022-07-29T04:42:47;18.00;99.90
32293;DHT22;43233;48.608;8.838;2022-07-29T04:45:13;18.00;99.90
32293;DHT22;43233;48.608;8.838;2022-07-29T04:47:39;18.00;99.90
32293;DHT22;43233;48.608;8.838;2022-07-29T04:50:05;18.10;99.90
32293;DHT22;43233;48.608;8.838;2022-07-29T04:52:32;18.10;99.90
32293;DHT22;43233;48.608;8.838;2022-07-29T04:54:58;18.20;99.90
32293;DHT22;43233;48.608;8.838;2022-07-29T04:57:23;18.20;99.90
32293;DHT22;43233;48.608;8.838;2022-07-29T04:59:49;18.30;99.90
32293;DHT22;43233;48.608;8.838;2022-07-29T05:02:15;18.30;99.90
32293;DHT22;43233;48.608;8.838;2022-07-29T05:04:40;18.40;99.90
32293;DHT22;43233;48.608;8.838;2022-07-29T05:07:06;18.50;99.90
32293;DHT22;43233;48.608;8.838;2022-07-29T05:09:31;18.60;99.90
32293;DHT22;43233;48.608;8.838;2022-07-29T05:11:57;18.70;99.90
32293;DHT22;43233;48.608;8.838;2022-07-29T05:14:23;18.80;99.90
32293;DHT22;43233;48.608;8.838;2022-07-29T05:16:49;18.90;99.90
32293;DHT22;43233;48.608;8.838;2022-07-29T05:19:16;18.90;99.90
32293;DHT22;43233;48.608;8.838;2022-07-29T05:21:42;18.90;99.90
32293;DHT22;43233;48.608;8.838;2022-07-29T05:24:09;18.90;99.90
32293;DHT22;43233;48.608;8.838;2022-07-29T05:26:35;18.90;99.90
32293;DHT22;43233;48.608;8.838;2022-07-29T05:29:00;18.80;99.90
32293;DHT22;43233;48.608;8.838;2022-07-29T05:31:26;18.80;99.90
32293;DHT22;43233;48.608;8.838;2022-07-29T05:33:51;18.80;99.90
32293;DHT22;43233;48.608;8.838;2022-07-29T05:36:17;18.80;99.90
32293;DHT22;43233;48.608;8.838;2022-07-29T05:38:43;18.80;99.90
32293;DHT22;43233;48.608;8.838;2022-07-29T05:41:09;18.90;99.90
32293;DHT22;43233;48.608;8.838;2022-07-29T05:43:34;18.90;99.90
32293;DHT22;43233;48.608;8.838;2022-07-29T05:46:00;18.90;99.90
32293;DHT22;43233;48.608;8.838;2022-07-29T05:48:25;19.00;99.90
32293;DHT22;43233;48.608;8.838;2022-07-29T05:50:51;19.00;99.90
32293;DHT22;43233;48.608;8.838;2022-07-29T05:53:17;19.00;99.90
32293;DHT22;43233;48.608;8.838;2022-07-29T05:55:42;19.00;99.90
32293;DHT22;43233;48.608;8.838;2022-07-29T05:58:08;19.10;99.90
32293;DHT22;43233;48.608;8.838;2022-07-29T06:00:34;19.10;99.90
32293;DHT22;43233;48.608;8.838;2022-07-29T06:03:00;19.10;99.90
32293;DHT22;43233;48.608;8.838;2022-07-29T06:05:25;19.20;99.90
32293;DHT22;43233;48.608;8.838;2022-07-29T06:07:51;19.20;99.90
32293;DHT22;43233;48.608;8.838;2022-07-29T06:10:17;19.20;99.90
32293;DHT22;43233;48.608;8.838;2022-07-29T06:12:42;19.20;99.90
32293;DHT22;43233;48.608;8.838;2022-07-29T06:15:08;19.40;99.90
32293;DHT22;43233;48.608;8.838;2022-07-29T06:17:34;19.40;99.90
32293;DHT22;43233;48.608;8.838;2022-07-29T06:20:00;19.50;99.90
32293;DHT22;43233;48.608;8.838;2022-07-29T06:22:26;19.50;99.90
32293;DHT22;43233;48.608;8.838;2022-07-29T06:24:51;19.50;99.90
32293;DHT22;43233;48.608;8.838;2022-07-29T06:27:17;19.50;99.90
32293;DHT22;43233;48.608;8.838;2022-07-29T06:29:43;19.60;99.90
32293;DHT22;43233;48.608;8.838;2022-07-29T06:32:08;19.60;99.90
32293;DHT22;43233;48.608;8.838;2022-07-29T06:34:35;19.70;99.90
32293;DHT22;43233;48.608;8.838;2022-07-29T06:37:05;19.70;99.90
32293;DHT22;43233;48.608;8.838;2022-07-29T06:39:31;19.80;99.90
32293;DHT22;43233;48.608;8.838;2022-07-29T06:41:58;19.90;99.90
32293;DHT22;43233;48.608;8.838;2022-07-29T06:44:25;20.00;99.90
32293;DHT22;43233;48.608;8.838;2022-07-29T06:46:50;20.00;99.90
32293;DHT22;43233;48.608;8.838;2022-07-29T06:49:17;20.00;99.90
32293;DHT22;43233;48.608;8.838;2022-07-29T06:51:42;20.00;99.90
32293;DHT22;43233;48.608;8.838;2022-07-29T06:54:08;20.10;99.90
32293;DHT22;43233;48.608;8.838;2022-07-29T06:56:34;20.10;99.90
32293;DHT22;43233;48.608;8.838;2022-07-29T06:59:02;20.10;99.90
32293;DHT22;43233;48.608;8.838;2022-07-29T07:01:28;20.40;99.90
32293;DHT22;43233;48.608;8.838;2022-07-29T07:03:54;20.50;99.90
32293;DHT22;43233;48.608;8.838;2022-07-29T07:06:19;20.50;99.90
32293;DHT22;43233;48.608;8.838;2022-07-29T07:08:45;20.40;99.90
32293;DHT22;43233;48.608;8.838;2022-07-29T07:11:11;20.40;99.90
32293;DHT22;43233;48.608;8.838;2022-07-29T07:13:37;20.50;99.90
32293;DHT22;43233;48.608;8.838;2022-07-29T07:16:03;20.50;99.90
32293;DHT22;43233;48.608;8.838;2022-07-29T07:18:29;20.60;99.90
32293;DHT22;43233;48.608;8.838;2022-07-29T07:20:55;20.70;99.90
32293;DHT22;43233;48.608;8.838;2022-07-29T07:23:21;20.70;99.90
32293;DHT22;43233;48.608;8.838;2022-07-29T07:25:46;20.70;99.90
32293;DHT22;43233;48.608;8.838;2022-07-29T07:28:12;20.70;99.90
32293;DHT22;43233;48.608;8.838;2022-07-29T07:30:38;20.70;99.90
32293;DHT22;43233;48.608;8.838;2022-07-29T07:33:04;20.70;99.90
32293;DHT22;43233;48.608;8.838;2022-07-29T07:35:30;20.80;99.90
32293;DHT22;43233;48.608;8.838;2022-07-29T07:37:56;20.80;99.90
32293;DHT22;43233;48.608;8.838;2022-07-29T07:40:21;20.80;99.90
32293;DHT22;43233;48.608;8.838;2022-07-29T07:42:47;21.00;99.90
32293;DHT22;43233;48.608;8.838;2022-07-29T07:45:13;21.10;99.90
32293;DHT22;43233;48.608;8.838;2022-07-29T07:47:38;21.00;99.90
32293;DHT22;43233;48.608;8.838;2022-07-29T07:50:06;21.00;99.90
32293;DHT22;43233;48.608;8.838;2022-07-29T07:52:33;21.10;99.90
32293;DHT22;43233;48.608;8.838;2022-07-29T07:54:59;21.10;99.90
32293;DHT22;43233;48.608;8.838;2022-07-29T07:57:24;21.10;99.90
32293;DHT22;43233;48.608;8.838;2022-07-29T07:59:50;21.10;99.90
32293;DHT22;43233;48.608;8.838;2022-07-29T08:02:16;21.20;99.90
32293;DHT22;43233;48.608;8.838;2022-07-29T08:04:42;21.20;99.90
32293;DHT22;43233;48.608;8.838;2022-07-29T08:07:08;21.20;99.90
32293;DHT22;43233;48.608;8.838;2022-07-29T08:09:35;21.30;99.90
32293;DHT22;43233;48.608;8.838;2022-07-29T08:12:01;21.30;99.90
32293;DHT22;43233;48.608;8.838;2022-07-29T08:14:31;21.40;99.90
32293;DHT22;43233;48.608;8.838;2022-07-29T08:16:57;21.50;99.90
32293;DHT22;43233;48.608;8.838;2022-07-29T08:19:23;21.60;99.90
32293;DHT22;43233;48.608;8.838;2022-07-29T08:21:49;21.60;99.90
32293;DHT22;43233;48.608;8.838;2022-07-29T08:24:14;21.70;99.90
32293;DHT22;43233;48.608;8.838;2022-07-29T08:26:59;21.90;99.90
32293;DHT22;43233;48.608;8.838;2022-07-29T08:29:24;22.00;99.90
32293;DHT22;43233;48.608;8.838;2022-07-29T08:31:50;22.10;99.90
32293;DHT22;43233;48.608;8.838;2022-07-29T08:34:16;22.10;99.90
32293;DHT22;43233;48.608;8.838;2022-07-29T08:36:41;22.20;99.90
32293;DHT22;43233;48.608;8.838;2022-07-29T08:39:07;22.30;99.90
32293;DHT22;43233;48.608;8.838;2022-07-29T08:41:33;22.30;99.90
32293;DHT22;43233;48.608;8.838;2022-07-29T08:43:58;22.40;99.90
32293;DHT22;43233;48.608;8.838;2022-07-29T08:46:25;22.50;99.90
32293;DHT22;43233;48.608;8.838;2022-07-29T08:48:50;22.60;99.90
32293;DHT22;43233;48.608;8.838;2022-07-29T08:51:20;22.60;99.90
32293;DHT22;43233;48.608;8.838;2022-07-29T08:53:47;22.70;99.40
32293;DHT22;43233;48.608;8.838;2022-07-29T08:56:18;22.80;99.00
32293;DHT22;43233;48.608;8.838;2022-07-29T08:58:45;22.90;95.80
32293;DHT22;43233;48.608;8.838;2022-07-29T09:01:15;23.00;96.10
32293;DHT22;43233;48.608;8.838;2022-07-29T09:03:44;23.20;89.60
32293;DHT22;43233;48.608;8.838;2022-07-29T09:06:13;23.30;86.90
32293;DHT22;43233;48.608;8.838;2022-07-29T09:08:39;23.40;85.80
32293;DHT22;43233;48.608;8.838;2022-07-29T09:11:06;23.50;85.50
32293;DHT22;43233;48.608;8.838;2022-07-29T09:13:33;23.60;84.80
32293;DHT22;43233;48.608;8.838;2022-07-29T09:15:58;23.70;81.80
32293;DHT22;43233;48.608;8.838;2022-07-29T09:18:34;23.80;79.50
32293;DHT22;43233;48.608;8.838;2022-07-29T09:21:00;24.00;76.60
32293;DHT22;43233;48.608;8.838;2022-07-29T09:26:34;24.20;75.40
32293;DHT22;43233;48.608;8.838;2022-07-29T09:29:00;24.40;74.10
32293;DHT22;43233;48.608;8.838;2022-07-29T09:31:35;24.50;72.50
32293;DHT22;43233;48.608;8.838;2022-07-29T09:34:00;24.40;72.90
32293;DHT22;43233;48.608;8.838;2022-07-29T09:36:26;24.50;72.60
32293;DHT22;43233;48.608;8.838;2022-07-29T09:38:59;24.60;69.80
32293;DHT22;43233;48.608;8.838;2022-07-29T09:41:25;24.60;71.50
32293;DHT22;43233;48.608;8.838;2022-07-29T09:43:56;24.70;68.70
32293;DHT22;43233;48.608;8.838;2022-07-29T09:46:22;24.80;68.70
32293;DHT22;43233;48.608;8.838;2022-07-29T09:49:18;24.70;71.30
32293;DHT22;43233;48.608;8.838;2022-07-29T09:51:43;24.90;68.00
32293;DHT22;43233;48.608;8.838;2022-07-29T09:54:25;25.00;65.70
32293;DHT22;43233;48.608;8.838;2022-07-29T09:56:52;25.10;65.30
32293;DHT22;43233;48.608;8.838;2022-07-29T09:59:18;25.20;64.20
32293;DHT22;43233;48.608;8.838;2022-07-29T10:01:46;25.30;65.10
32293;DHT22;43233;48.608;8.838;2022-07-29T10:04:11;25.50;63.80
32293;DHT22;43233;48.608;8.838;2022-07-29T10:06:56;25.60;64.30
32293;DHT22;43233;48.608;8.838;2022-07-29T10:09:22;25.60;62.40
32293;DHT22;43233;48.608;8.838;2022-07-29T10:12:05;25.60;60.80
32293;DHT22;43233;48.608;8.838;2022-07-29T10:14:32;25.60;59.70
32293;DHT22;43233;48.608;8.838;2022-07-29T10:17:01;25.80;60.10
32293;DHT22;43233;48.608;8.838;2022-07-29T10:19:31;25.80;60.60
32293;DHT22;43233;48.608;8.838;2022-07-29T10:22:02;25.80;57.30
32293;DHT22;43233;48.608;8.838;2022-07-29T10:24:29;25.70;55.30
32293;DHT22;43233;48.608;8.838;2022-07-29T10:27:00;25.60;55.30
32293;DHT22;43233;48.608;8.838;2022-07-29T10:29:27;25.00;54.20
32293;DHT22;43233;48.608;8.838;2022-07-29T10:32:10;24.40;57.80
32293;DHT22;43233;48.608;8.838;2022-07-29T10:38:00;22.90;68.00
32293;DHT22;43233;48.608;8.838;2022-07-29T10:41:02;22.70;71.40
32293;DHT22;43233;48.608;8.838;2022-07-29T10:43:50;22.70;71.50
32293;DHT22;43233;48.608;8.838;2022-07-29T10:46:17;22.70;74.40
32293;DHT22;43233;48.608;8.838;2022-07-29T10:49:15;22.80;74.00
32293;DHT22;43233;48.608;8.838;2022-07-29T10:57:13;23.20;75.00
32293;DHT22;43233;48.608;8.838;2022-07-29T10:59:39;23.50;72.30
32293;DHT22;43233;48.608;8.838;2022-07-29T11:05:00;24.00;62.60
32293;DHT22;43233;48.608;8.838;2022-07-29T11:07:26;24.10;59.80
32293;DHT22;43233;48.608;8.838;2022-07-29T11:10:23;24.20;59.20
32293;DHT22;43233;48.608;8.838;2022-07-29T11:12:49;24.20;61.70
32293;DHT22;43233;48.608;8.838;2022-07-29T11:15:18;24.20;64.80
32293;DHT22;43233;48.608;8.838;2022-07-29T11:20:43;24.20;67.10
32293;DHT22;43233;48.608;8.838;2022-07-29T11:28:52;24.10;65.80
32293;DHT22;43233;48.608;8.838;2022-07-29T11:39:39;24.50;64.10
32293;DHT22;43233;48.608;8.838;2022-07-29T11:45:15;24.80;62.50
32293;DHT22;43233;48.608;8.838;2022-07-29T11:50:16;25.20;59.80
32293;DHT22;43233;48.608;8.838;2022-07-29T11:52:45;25.40;56.30
32293;DHT22;43233;48.608;8.838;2022-07-29T11:55:19;25.40;56.40
32293;DHT22;43233;48.608;8.838;2022-07-29T11:57:56;25.60;56.60
32293;DHT22;43233;48.608;8.838;2022-07-29T12:00:33;25.50;55.10
32293;DHT22;43233;48.608;8.838;2022-07-29T12:03:01;25.50;54.80
32293;DHT22;43233;48.608;8.838;2022-07-29T12:05:41;25.50;55.80
32293;DHT22;43233;48.608;8.838;2022-07-29T12:10:37;25.40;53.10
32293;DHT22;43233;48.608;8.838;2022-07-29T12:13:03;25.30;51.50
32293;DHT22;43233;48.608;8.838;2022-07-29T12:15:29;25.20;49.10
32293;DHT22;43233;48.608;8.838;2022-07-29T12:17:55;25.10;50.50
32293;DHT22;43233;48.608;8.838;2022-07-29T12:20:29;25.00;51.00
32293;DHT22;43233;48.608;8.838;2022-07-29T12:22:56;24.90;51.80
32293;DHT22;43233;48.608;8.838;2022-07-29T12:25:23;24.80;53.80
32293;DHT22;43233;48.608;8.838;2022-07-29T12:27:59;24.60;55.00
32293;DHT22;43233;48.608;8.838;2022-07-29T12:30:37;24.40;55.80
32293;DHT22;43233;48.608;8.838;2022-07-29T12:33:11;24.10;62.70
32293;DHT22;43233;48.608;8.838;2022-07-29T12:35:38;23.40;74.00
32293;DHT22;43233;48.608;8.838;2022-07-29T12:38:04;22.50;79.90
32293;DHT22;43233;48.608;8.838;2022-07-29T12:40:30;22.10;80.10
32293;DHT22;43233;48.608;8.838;2022-07-29T12:45:41;21.90;84.30
32293;DHT22;43233;48.608;8.838;2022-07-29T12:48:07;22.00;81.50
32293;DHT22;43233;48.608;8.838;2022-07-29T12:50:51;22.00;81.70
32293;DHT22;43233;48.608;8.838;2022-07-29T12:53:17;22.00;82.70
32293;DHT22;43233;48.608;8.838;2022-07-29T12:55:46;22.00;85.50
32293;DHT22;43233;48.608;8.838;2022-07-29T12:58:39;21.90;87.70
32293;DHT22;43233;48.608;8.838;2022-07-29T13:01:10;22.00;85.40
32293;DHT22;43233;48.608;8.838;2022-07-29T13:03:51;22.00;85.10
32293;DHT22;43233;48.608;8.838;2022-07-29T13:06:34;21.90;84.50
32293;DHT22;43233;48.608;8.838;2022-07-29T13:11:37;22.00;85.30
32293;DHT22;43233;48.608;8.838;2022-07-29T13:14:04;22.00;86.10
32293;DHT22;43233;48.608;8.838;2022-07-29T13:16:29;22.00;85.40
32293;DHT22;43233;48.608;8.838;2022-07-29T13:19:08;22.10;85.20
32293;DHT22;43233;48.608;8.838;2022-07-29T13:21:35;22.10;86.70
32293;DHT22;43233;48.608;8.838;2022-07-29T13:24:01;22.20;84.80
32293;DHT22;43233;48.608;8.838;2022-07-29T13:26:27;22.20;83.80
32293;DHT22;43233;48.608;8.838;2022-07-29T13:28:53;22.40;84.60
32293;DHT22;43233;48.608;8.838;2022-07-29T13:31:20;22.40;82.00
32293;DHT22;43233;48.608;8.838;2022-07-29T13:33:45;22.40;78.20
32293;DHT22;43233;48.608;8.838;2022-07-29T13:36:11;22.40;79.60
32293;DHT22;43233;48.608;8.838;2022-07-29T13:38:36;22.50;82.20
32293;DHT22;43233;48.608;8.838;2022-07-29T13:41:02;22.60;77.60
32293;DHT22;43233;48.608;8.838;2022-07-29T13:43:27;22.70;79.40
32293;DHT22;43233;48.608;8.838;2022-07-29T13:45:53;22.90;82.70
32293;DHT22;43233;48.608;8.838;2022-07-29T13:48:19;23.00;82.30
32293;DHT22;43233;48.608;8.838;2022-07-29T13:50:44;23.10;83.70
32293;DHT22;43233;48.608;8.838;2022-07-29T13:53:10;23.10;80.70
32293;DHT22;43233;48.608;8.838;2022-07-29T13:55:36;23.20;79.50
32293;DHT22;43233;48.608;8.838;2022-07-29T13:58:02;23.20;81.00
32293;DHT22;43233;48.608;8.838;2022-07-29T14:00:28;23.40;80.90
32293;DHT22;43233;48.608;8.838;2022-07-29T14:02:54;23.50;81.60
32293;DHT22;43233;48.608;8.838;2022-07-29T14:05:20;23.50;80.50
32293;DHT22;43233;48.608;8.838;2022-07-29T14:07:45;23.60;79.20
32293;DHT22;43233;48.608;8.838;2022-07-29T14:10:11;23.60;78.00
32293;DHT22;43233;48.608;8.838;2022-07-29T14:12:37;23.60;78.80
32293;DHT22;43233;48.608;8.838;2022-07-29T14:15:03;23.70;77.40
32293;DHT22;43233;48.608;8.838;2022-07-29T14:17:29;23.80;77.30
32293;DHT22;43233;48.608;8.838;2022-07-29T14:19:55;23.90;75.70
32293;DHT22;43233;48.608;8.838;2022-07-29T14:22:20;24.00;76.30
32293;DHT22;43233;48.608;8.838;2022-07-29T14:24:46;24.10;75.90
32293;DHT22;43233;48.608;8.838;2022-07-29T14:27:11;24.20;73.80
32293;DHT22;43233;48.608;8.838;2022-07-29T14:29:37;24.30;71.50
32293;DHT22;43233;48.608;8.838;2022-07-29T14:32:07;24.40;73.90
32293;DHT22;43233;48.608;8.838;2022-07-29T14:34:34;24.40;71.60
32293;DHT22;43233;48.608;8.838;2022-07-29T14:36:59;24.50;70.60
32293;DHT22;43233;48.608;8.838;2022-07-29T14:39:25;24.50;67.40
32293;DHT22;43233;48.608;8.838;2022-07-29T14:41:50;24.50;68.50
32293;DHT22;43233;48.608;8.838;2022-07-29T14:44:17;24.50;69.80
32293;DHT22;43233;48.608;8.838;2022-07-29T14:46:43;24.60;64.80
32293;DHT22;43233;48.608;8.838;2022-07-29T14:49:08;24.50;65.70
32293;DHT22;43233;48.608;8.838;2022-07-29T14:51:34;24.60;67.20
32293;DHT22;43233;48.608;8.838;2022-07-29T14:54:00;24.60;67.80
32293;DHT22;43233;48.608;8.838;2022-07-29T14:56:25;24.60;70.00
32293;DHT22;43233;48.608;8.838;2022-07-29T14:58:52;24.70;67.60
32293;DHT22;43233;48.608;8.838;2022-07-29T15:01:18;24.70;66.50
32293;DHT22;43233;48.608;8.838;2022-07-29T15:03:43;24.70;65.00
32293;DHT22;43233;48.608;8.838;2022-07-29T15:06:09;24.80;63.90
32293;DHT22;43233;48.608;8.838;2022-07-29T15:08:34;24.80;60.80
32293;DHT22;43233;48.608;8.838;2022-07-29T15:11:00;24.90;60.90
32293;DHT22;43233;48.608;8.838;2022-07-29T15:13:26;24.90;60.60
32293;DHT22;43233;48.608;8.838;2022-07-29T15:15:52;24.80;61.30
32293;DHT22;43233;48.608;8.838;2022-07-29T15:18:17;24.80;63.10
32293;DHT22;43233;48.608;8.838;2022-07-29T15:20:43;24.90;62.30
32293;DHT22;43233;48.608;8.838;2022-07-29T15:23:11;24.90;61.50
32293;DHT22;43233;48.608;8.838;2022-07-29T15:25:38;24.90;62.30
32293;DHT22;43233;48.608;8.838;2022-07-29T15:28:04;24.90;65.20
32293;DHT22;43233;48.608;8.838;2022-07-29T15:30:33;24.90;66.20
32293;DHT22;43233;48.608;8.838;2022-07-29T15:32:59;24.90;66.10
32293;DHT22;43233;48.608;8.838;2022-07-29T15:35:25;24.90;62.50
32293;DHT22;43233;48.608;8.838;2022-07-29T15:37:50;24.90;64.80
32293;DHT22;43233;48.608;8.838;2022-07-29T15:40:16;24.80;61.50
32293;DHT22;43233;48.608;8.838;2022-07-29T15:42:42;24.90;61.40
32293;DHT22;43233;48.608;8.838;2022-07-29T15:45:08;24.80;62.30
32293;DHT22;43233;48.608;8.838;2022-07-29T15:47:35;24.80;63.30
32293;DHT22;43233;48.608;8.838;2022-07-29T15:50:01;24.70;63.60
32293;DHT22;43233;48.608;8.838;2022-07-29T15:52:27;24.70;63.00
32293;DHT22;43233;48.608;8.838;2022-07-29T15:54:53;24.70;63.90
32293;DHT22;43233;48.608;8.838;2022-07-29T15:57:19;24.70;62.70
32293;DHT22;43233;48.608;8.838;2022-07-29T15:59:45;24.80;63.50
32293;DHT22;43233;48.608;8.838;2022-07-29T16:02:11;24.70;64.30
32293;DHT22;43233;48.608;8.838;2022-07-29T16:04:36;24.70;57.50
32293;DHT22;43233;48.608;8.838;2022-07-29T16:07:02;24.70;55.30
32293;DHT22;43233;48.608;8.838;2022-07-29T16:09:28;24.50;54.10
32293;DHT22;43233;48.608;8.838;2022-07-29T16:11:54;24.50;53.00
32293;DHT22;43233;48.608;8.838;2022-07-29T16:14:20;24.40;53.70
32293;DHT22;43233;48.608;8.838;2022-07-29T16:16:46;24.50;52.10
32293;DHT22;43233;48.608;8.838;2022-07-29T16:19:12;24.50;53.40
32293;DHT22;43233;48.608;8.838;2022-07-29T16:21:39;24.40;53.80
32293;DHT22;43233;48.608;8.838;2022-07-29T16:24:05;24.40;53.40
32293;DHT22;43233;48.608;8.838;2022-07-29T16:26:34;24.40;54.10
32293;DHT22;43233;48.608;8.838;2022-07-29T16:28:59;24.30;53.10
32293;DHT22;43233;48.608;8.838;2022-07-29T16:31:26;24.20;55.60